createdAt,value
2023-05-03T00:00:07.437Z,18.97
2023-05-03T00:01:07.502Z,18.96
2023-05-03T00:02:07.639Z,18.96
2023-05-03T00:03:06.673Z,18.96
2023-05-03T00:04:07.715Z,18.96
2023-05-03T00:05:08.240Z,18.96
2023-05-03T00:06:06.929Z,18.96
2023-05-03T00:07:07.852Z,18.95
2023-05-03T00:08:07.951Z,18.95
2023-05-03T00:09:06.998Z,18.95
2023-05-03T00:10:08.055Z,18.96
2023-05-03T00:11:07.102Z,18.95
2023-05-03T00:12:07.156Z,18.95
2023-05-03T00:13:08.213Z,18.95
2023-05-03T00:14:07.271Z,18.95
2023-05-03T00:15:07.341Z,18.95
2023-05-03T00:16:08.385Z,18.95
2023-05-03T00:17:08.498Z,18.95
2023-05-03T00:18:08.556Z,18.94
2023-05-03T00:19:10.715Z,18.94
2023-05-03T00:20:08.568Z,18.94
2023-05-03T00:21:08.580Z,18.93
2023-05-03T00:22:07.553Z,18.94
2023-05-03T00:23:08.559Z,18.94
2023-05-03T00:24:08.577Z,18.94
2023-05-03T00:25:08.542Z,18.93
2023-05-03T00:26:08.531Z,18.94
2023-05-03T00:27:08.525Z,18.94
2023-05-03T00:28:08.514Z,18.94
2023-05-03T00:29:07.528Z,18.94
2023-05-03T00:30:08.610Z,18.94
2023-05-03T00:31:08.732Z,18.94
2023-05-03T00:32:08.730Z,18.93
2023-05-03T00:33:08.873Z,18.93
2023-05-03T00:34:08.864Z,18.93
2023-05-03T00:35:08.939Z,18.93
2023-05-03T00:36:07.967Z,18.93
2023-05-03T00:37:08.062Z,18.93
2023-05-03T00:38:09.089Z,18.93
2023-05-03T00:39:09.138Z,18.92
2023-05-03T00:40:09.216Z,18.92
2023-05-03T00:41:09.298Z,18.92
2023-05-03T00:42:09.343Z,18.92
2023-05-03T00:43:09.414Z,18.91
2023-05-03T00:44:08.475Z,18.92
2023-05-03T00:45:09.543Z,18.91
2023-05-03T00:46:16.077Z,18.92
2023-05-03T00:47:09.634Z,18.91
2023-05-03T00:48:09.591Z,18.91
2023-05-03T00:49:08.584Z,18.92
2023-05-03T00:50:09.581Z,18.91
2023-05-03T00:51:09.567Z,18.91
2023-05-03T00:52:08.549Z,18.91
2023-05-03T00:53:09.552Z,18.91
2023-05-03T00:54:09.524Z,18.91
2023-05-03T00:55:08.624Z,18.90
2023-05-03T00:56:09.603Z,18.90
2023-05-03T00:57:09.667Z,18.90
2023-05-03T00:58:08.738Z,18.90
2023-05-03T00:59:09.791Z,18.90
2023-05-03T01:00:09.879Z,18.90
2023-05-03T01:01:09.098Z,18.90
2023-05-03T01:02:10.070Z,18.90
2023-05-03T01:03:10.230Z,18.89
2023-05-03T01:04:09.238Z,18.90
2023-05-03T01:05:09.236Z,18.89
2023-05-03T01:06:10.274Z,18.89
2023-05-03T01:07:10.334Z,18.89
2023-05-03T01:08:10.366Z,18.89
2023-05-03T01:09:10.452Z,18.90
2023-05-03T01:10:10.490Z,18.89
2023-05-03T01:11:10.549Z,18.89
2023-05-03T01:12:09.615Z,18.89
2023-05-03T01:13:10.697Z,18.89
2023-05-03T01:14:09.738Z,18.88
2023-05-03T01:15:10.824Z,18.89
2023-05-03T01:16:10.922Z,18.89
2023-05-03T01:17:10.936Z,18.89
2023-05-03T01:18:10.022Z,18.89
2023-05-03T01:19:10.068Z,18.88
2023-05-03T01:20:11.135Z,18.88
2023-05-03T01:21:10.196Z,18.89
2023-05-03T01:22:10.250Z,18.88
2023-05-03T01:23:11.332Z,18.88
2023-05-03T01:24:10.374Z,18.88
2023-05-03T01:25:10.472Z,18.87
2023-05-03T01:26:10.509Z,18.88
2023-05-03T01:27:10.565Z,18.87
2023-05-03T01:28:11.631Z,18.87
2023-05-03T01:29:10.682Z,18.87
2023-05-03T01:30:11.769Z,18.87
2023-05-03T01:31:11.841Z,18.87
2023-05-03T01:32:10.878Z,18.86
2023-05-03T01:33:11.933Z,18.86
2023-05-03T01:34:11.008Z,18.87
2023-05-03T01:35:12.044Z,18.86
2023-05-03T01:36:12.116Z,18.87
2023-05-03T01:37:11.163Z,18.86
2023-05-03T01:38:11.240Z,18.87
2023-05-03T01:39:12.289Z,18.86
2023-05-03T01:40:12.355Z,18.86
2023-05-03T01:41:12.429Z,18.86
2023-05-03T01:42:12.484Z,18.86
2023-05-03T01:43:12.511Z,18.86
2023-05-03T01:44:11.574Z,18.86
2023-05-03T01:45:11.620Z,18.86
2023-05-03T01:46:11.734Z,18.86
2023-05-03T01:47:12.720Z,18.86
2023-05-03T01:48:12.843Z,18.85
2023-05-03T01:49:11.841Z,18.85
2023-05-03T01:50:12.923Z,18.86
2023-05-03T01:51:12.988Z,18.85
2023-05-03T01:52:13.027Z,18.85
2023-05-03T01:53:13.087Z,18.85
2023-05-03T01:54:12.129Z,18.84
2023-05-03T01:55:12.201Z,18.85
2023-05-03T01:56:13.239Z,18.85
2023-05-03T01:57:12.327Z,18.85
2023-05-03T01:58:13.353Z,18.85
2023-05-03T01:59:12.413Z,18.84
2023-05-03T02:00:12.496Z,18.84
2023-05-03T02:01:13.567Z,18.84
2023-05-03T02:02:12.619Z,18.84
2023-05-03T02:03:13.704Z,18.84
2023-05-03T02:04:13.719Z,18.84
2023-05-03T02:05:13.760Z,18.84
2023-05-03T02:06:13.852Z,18.84
2023-05-03T02:07:13.835Z,18.84
2023-05-03T02:08:12.876Z,18.84
2023-05-03T02:09:13.897Z,18.84
2023-05-03T02:10:12.930Z,18.84
2023-05-03T02:11:13.954Z,18.84
2023-05-03T02:12:14.032Z,18.84
2023-05-03T02:13:14.065Z,18.84
2023-05-03T02:14:13.054Z,18.83
2023-05-03T02:15:13.117Z,18.83
2023-05-03T02:16:13.154Z,18.83
2023-05-03T02:17:14.167Z,18.83
2023-05-03T02:18:14.213Z,18.83
2023-05-03T02:19:14.283Z,18.83
2023-05-03T02:20:14.351Z,18.83
2023-05-03T02:21:14.379Z,18.83
2023-05-03T02:22:13.436Z,18.83
2023-05-03T02:23:13.460Z,18.83
2023-05-03T02:24:14.497Z,18.83
2023-05-03T02:25:13.548Z,18.83
2023-05-03T02:26:14.612Z,18.82
2023-05-03T02:27:14.675Z,18.82
2023-05-03T02:28:14.728Z,18.82
2023-05-03T02:29:14.787Z,18.83
2023-05-03T02:30:13.793Z,18.82
2023-05-03T02:31:14.898Z,18.82
2023-05-03T02:32:13.877Z,18.82
2023-05-03T02:33:14.908Z,18.82
2023-05-03T02:34:14.924Z,18.82
2023-05-03T02:35:13.944Z,18.81
2023-05-03T02:36:13.985Z,18.81
2023-05-03T02:37:13.984Z,18.82
2023-05-03T02:38:15.025Z,18.82
2023-05-03T02:39:14.028Z,18.82
2023-05-03T02:40:15.043Z,18.81
2023-05-03T02:41:15.066Z,18.81
2023-05-03T02:42:15.101Z,18.82
2023-05-03T02:43:15.131Z,18.82
2023-05-03T02:44:14.145Z,18.81
2023-05-03T02:45:15.186Z,18.82
2023-05-03T02:46:14.215Z,18.81
2023-05-03T02:47:15.201Z,18.81
2023-05-03T02:48:15.220Z,18.81
2023-05-03T02:49:15.250Z,18.81
2023-05-03T02:50:14.293Z,18.81
2023-05-03T02:51:14.331Z,18.80
2023-05-03T02:52:14.366Z,18.80
2023-05-03T02:53:15.427Z,18.80
2023-05-03T02:54:14.484Z,18.80
2023-05-03T02:55:15.532Z,18.80
2023-05-03T02:56:15.579Z,18.80
2023-05-03T02:57:15.576Z,18.80
2023-05-03T02:58:14.615Z,18.80
2023-05-03T02:59:14.663Z,18.79
2023-05-03T03:00:15.682Z,18.79
2023-05-03T03:01:15.747Z,18.79
2023-05-03T03:02:14.745Z,18.79
2023-05-03T03:03:15.868Z,18.79
2023-05-03T03:04:15.854Z,18.80
2023-05-03T03:05:15.887Z,18.79
2023-05-03T03:06:15.920Z,18.78
2023-05-03T03:07:14.929Z,18.79
2023-05-03T03:08:14.943Z,18.78
2023-05-03T03:09:15.975Z,18.78
2023-05-03T03:10:16.006Z,18.78
2023-05-03T03:11:16.049Z,18.78
2023-05-03T03:12:16.136Z,18.79
2023-05-03T03:13:15.119Z,18.78
2023-05-03T03:14:16.158Z,18.78
2023-05-03T03:15:16.170Z,18.78
2023-05-03T03:16:16.233Z,18.78
2023-05-03T03:17:15.189Z,18.78
2023-05-03T03:18:17.710Z,18.78
2023-05-03T03:19:16.183Z,18.78
2023-05-03T03:20:16.174Z,18.77
2023-05-03T03:21:15.153Z,18.77
2023-05-03T03:22:16.146Z,18.78
2023-05-03T03:23:16.139Z,18.77
2023-05-03T03:24:15.134Z,18.77
2023-05-03T03:25:16.119Z,18.77
2023-05-03T03:26:15.122Z,18.77
2023-05-03T03:27:15.108Z,18.77
2023-05-03T03:28:16.112Z,18.77
2023-05-03T03:29:15.095Z,18.77
2023-05-03T03:30:16.095Z,18.77
2023-05-03T03:31:16.104Z,18.77
2023-05-03T03:32:16.085Z,18.76
2023-05-03T03:33:16.226Z,18.76
2023-05-03T03:34:15.087Z,18.76
2023-05-03T03:35:15.056Z,18.76
2023-05-03T03:36:16.072Z,18.76
2023-05-03T03:37:16.027Z,18.76
2023-05-03T03:38:16.029Z,18.76
2023-05-03T03:39:16.011Z,18.76
2023-05-03T03:40:15.021Z,18.75
2023-05-03T03:41:15.018Z,18.76
2023-05-03T03:42:16.615Z,18.76
2023-05-03T03:43:16.033Z,18.76
2023-05-03T03:44:16.008Z,18.75
2023-05-03T03:45:16.004Z,18.76
2023-05-03T03:46:16.008Z,18.75
2023-05-03T03:47:16.020Z,18.76
2023-05-03T03:48:15.985Z,18.75
2023-05-03T03:49:15.974Z,18.76
2023-05-03T03:50:14.925Z,18.75
2023-05-03T03:51:15.928Z,18.75
2023-05-03T03:52:14.929Z,18.75
2023-05-03T03:53:15.923Z,18.75
2023-05-03T03:54:14.921Z,18.74
2023-05-03T03:55:14.908Z,18.75
2023-05-03T03:56:15.916Z,18.75
2023-05-03T03:57:15.988Z,18.75
2023-05-03T03:58:14.929Z,18.75
2023-05-03T03:59:15.903Z,18.74
2023-05-03T04:00:15.892Z,18.74
2023-05-03T04:01:15.934Z,18.74
2023-05-03T04:02:15.017Z,18.74
2023-05-03T04:03:15.984Z,18.74
2023-05-03T04:04:16.068Z,18.73
2023-05-03T04:05:15.096Z,18.73
2023-05-03T04:06:14.912Z,18.74
2023-05-03T04:07:15.906Z,18.73
2023-05-03T04:08:14.888Z,18.74
2023-05-03T04:09:14.880Z,18.73
2023-05-03T04:10:15.902Z,18.73
2023-05-03T04:11:15.893Z,18.73
2023-05-03T04:12:15.925Z,18.73
2023-05-03T04:13:15.876Z,18.73
2023-05-03T04:14:15.873Z,18.74
2023-05-03T04:15:15.880Z,18.73
2023-05-03T04:16:15.949Z,18.73
2023-05-03T04:17:15.928Z,18.73
2023-05-03T04:18:15.880Z,18.72
2023-05-03T04:19:14.867Z,18.72
2023-05-03T04:20:15.884Z,18.72
2023-05-03T04:21:15.907Z,18.73
2023-05-03T04:22:14.874Z,18.72
2023-05-03T04:23:15.864Z,18.72
2023-05-03T04:24:15.856Z,18.73
2023-05-03T04:25:15.861Z,18.72
2023-05-03T04:26:29.952Z,18.72
2023-05-03T04:27:15.859Z,18.71
2023-05-03T04:28:14.850Z,18.71
2023-05-03T04:29:14.830Z,18.71
2023-05-03T04:30:15.838Z,18.71
2023-05-03T04:31:15.862Z,18.71
2023-05-03T04:32:15.814Z,18.71
2023-05-03T04:33:14.818Z,18.72
2023-05-03T04:34:14.806Z,18.71
2023-05-03T04:35:15.825Z,18.70
2023-05-03T04:36:15.789Z,18.71
2023-05-03T04:37:14.796Z,18.71
2023-05-03T04:38:15.784Z,18.70
2023-05-03T04:39:15.770Z,18.71
2023-05-03T04:40:15.762Z,18.70
2023-05-03T04:41:16.128Z,18.71
2023-05-03T04:42:14.740Z,18.70
2023-05-03T04:43:14.744Z,18.71
2023-05-03T04:44:15.724Z,18.70
2023-05-03T04:45:15.723Z,18.70
2023-05-03T04:46:15.776Z,18.71
2023-05-03T04:47:14.722Z,18.71
2023-05-03T04:48:15.717Z,18.70
2023-05-03T04:49:15.694Z,18.71
2023-05-03T04:50:15.695Z,18.70
2023-05-03T04:51:15.678Z,18.71
2023-05-03T04:52:14.679Z,18.70
2023-05-03T04:53:14.710Z,18.70
2023-05-03T04:54:15.666Z,18.70
2023-05-03T04:55:14.704Z,18.70
2023-05-03T04:56:15.656Z,18.70
2023-05-03T04:57:15.666Z,18.70
2023-05-03T04:58:15.688Z,18.70
2023-05-03T04:59:15.633Z,18.70
2023-05-03T05:00:15.634Z,18.70
2023-05-03T05:01:15.708Z,18.70
2023-05-03T05:02:15.608Z,18.70
2023-05-03T05:03:15.689Z,18.71
2023-05-03T05:04:15.605Z,18.71
2023-05-03T05:05:16.952Z,18.71
2023-05-03T05:06:15.642Z,18.71
2023-05-03T05:07:14.579Z,18.71
2023-05-03T05:08:14.585Z,18.72
2023-05-03T05:09:15.622Z,18.72
2023-05-03T05:10:14.609Z,18.72
2023-05-03T05:11:14.595Z,18.72
2023-05-03T05:12:14.557Z,18.72
2023-05-03T05:13:14.542Z,18.73
2023-05-03T05:14:15.547Z,18.73
2023-05-03T05:15:15.540Z,18.74
2023-05-03T05:16:15.568Z,18.74
2023-05-03T05:17:14.528Z,18.73
2023-05-03T05:18:15.564Z,18.74
2023-05-03T05:19:15.522Z,18.75
2023-05-03T05:20:16.999Z,18.74
2023-05-03T05:21:15.492Z,18.75
2023-05-03T05:22:14.498Z,18.75
2023-05-03T05:23:14.471Z,18.74
2023-05-03T05:24:15.479Z,18.75
2023-05-03T05:25:14.486Z,18.76
2023-05-03T05:26:15.446Z,18.77
2023-05-03T05:27:15.731Z,18.77
2023-05-03T05:28:14.565Z,18.77
2023-05-03T05:29:15.417Z,18.78
2023-05-03T05:30:15.466Z,18.79
2023-05-03T05:31:14.483Z,18.79
2023-05-03T05:32:15.536Z,18.79
2023-05-03T05:33:15.610Z,18.80
2023-05-03T05:34:15.391Z,18.80
2023-05-03T05:35:14.394Z,18.81
2023-05-03T05:36:15.459Z,18.82
2023-05-03T05:37:14.631Z,18.83
2023-05-03T05:38:15.911Z,18.84
2023-05-03T05:39:14.473Z,18.86
2023-05-03T05:40:15.515Z,18.87
2023-05-03T05:41:14.997Z,18.88
2023-05-03T05:42:15.547Z,18.89
2023-05-03T05:43:15.383Z,18.90
2023-05-03T05:44:15.433Z,18.92
2023-05-03T05:45:14.510Z,18.95
2023-05-03T05:46:15.535Z,18.97
2023-05-03T05:47:14.769Z,18.98
2023-05-03T05:48:14.713Z,19.00
2023-05-03T05:49:15.711Z,19.02
2023-05-03T05:50:18.836Z,19.03
2023-05-03T05:51:15.746Z,19.06
2023-05-03T05:52:15.802Z,19.07
2023-05-03T05:53:15.712Z,19.09
2023-05-03T05:54:15.736Z,19.09
2023-05-03T05:55:15.694Z,19.13
2023-05-03T05:56:15.706Z,19.17
2023-05-03T05:57:15.767Z,19.20
2023-05-03T05:58:15.682Z,19.24
2023-05-03T05:59:15.676Z,19.26
2023-05-03T06:00:15.688Z,19.30
2023-05-03T06:01:15.691Z,19.34
2023-05-03T06:02:16.155Z,19.37
2023-05-03T06:03:14.766Z,19.42
2023-05-03T06:04:14.643Z,19.47
2023-05-03T06:05:15.650Z,19.52
2023-05-03T06:06:15.789Z,19.57
2023-05-03T06:07:15.640Z,19.62
2023-05-03T06:08:14.600Z,19.65
2023-05-03T06:09:24.137Z,19.67
2023-05-03T06:10:15.597Z,19.68
2023-05-03T06:11:15.601Z,19.71
2023-05-03T06:12:15.748Z,19.74
2023-05-03T06:13:14.623Z,19.76
2023-05-03T06:14:15.569Z,19.79
2023-05-03T06:15:15.556Z,19.82
2023-05-03T06:16:14.549Z,19.88
2023-05-03T06:17:15.611Z,19.97
2023-05-03T06:18:15.591Z,20.00
2023-05-03T06:19:15.553Z,20.12
2023-05-03T06:20:15.521Z,20.23
2023-05-03T06:21:15.504Z,20.38
2023-05-03T06:22:15.538Z,20.39
2023-05-03T06:23:14.572Z,20.47
2023-05-03T06:24:15.650Z,20.46
2023-05-03T06:25:17.801Z,20.47
2023-05-03T06:26:15.673Z,20.49
2023-05-03T06:27:15.704Z,20.57
2023-05-03T06:28:15.655Z,20.61
2023-05-03T06:29:15.681Z,20.65
2023-05-03T06:30:14.639Z,20.67
2023-05-03T06:31:14.752Z,20.74
2023-05-03T06:32:15.649Z,20.81
2023-05-03T06:33:14.626Z,20.93
2023-05-03T06:34:14.622Z,21.02
2023-05-03T06:35:14.606Z,21.07
2023-05-03T06:36:15.605Z,21.15
2023-05-03T06:37:15.591Z,21.30
2023-05-03T06:38:15.602Z,21.40
2023-05-03T06:39:14.559Z,21.49
2023-05-03T06:40:15.606Z,21.55
2023-05-03T06:41:15.623Z,21.59
2023-05-03T06:42:15.552Z,21.58
2023-05-03T06:43:15.536Z,21.58
2023-05-03T06:44:38.677Z,21.47
2023-05-03T06:45:39.601Z,21.41
2023-05-03T06:46:39.647Z,21.37
2023-05-03T06:47:38.631Z,21.33
2023-05-03T06:48:39.650Z,21.30
2023-05-03T06:49:39.583Z,21.28
2023-05-03T06:50:38.581Z,21.26
2023-05-03T06:51:39.557Z,21.26
2023-05-03T06:52:39.794Z,21.29
2023-05-03T06:53:39.561Z,21.34
2023-05-03T06:54:39.555Z,21.38
2023-05-03T06:55:38.541Z,21.47
2023-05-03T06:56:39.650Z,21.57
2023-05-03T06:57:38.836Z,21.52
2023-05-03T06:58:38.508Z,21.51
2023-05-03T06:59:38.519Z,21.52
2023-05-03T07:00:39.606Z,21.65
2023-05-03T07:01:38.547Z,21.69
2023-05-03T07:02:38.692Z,21.72
2023-05-03T07:03:41.827Z,21.74
2023-05-03T07:04:38.477Z,21.75
2023-05-03T07:05:38.481Z,21.82
2023-05-03T07:06:52.580Z,21.83
2023-05-03T07:07:39.470Z,21.86
2023-05-03T07:08:39.461Z,21.82
2023-05-03T07:09:43.312Z,21.83
2023-05-03T07:10:39.438Z,21.81
2023-05-03T07:11:38.437Z,21.82
2023-05-03T07:12:38.430Z,21.85
2023-05-03T07:13:39.430Z,21.85
2023-05-03T07:14:39.404Z,21.83
2023-05-03T07:15:39.399Z,21.80
2023-05-03T07:16:38.501Z,21.79
2023-05-03T07:17:38.423Z,21.80
2023-05-03T07:18:39.388Z,21.92
2023-05-03T07:19:39.377Z,21.96
2023-05-03T07:20:38.418Z,22.01
2023-05-03T07:21:39.477Z,22.07
2023-05-03T07:22:38.516Z,22.09
2023-05-03T07:23:39.561Z,22.14
2023-05-03T07:24:39.685Z,22.18
2023-05-03T07:25:38.673Z,22.21
2023-05-03T07:26:38.696Z,22.22
2023-05-03T07:27:39.739Z,22.21
2023-05-03T07:28:39.783Z,22.18
2023-05-03T07:29:39.818Z,22.22
2023-05-03T07:30:39.834Z,22.34
2023-05-03T07:31:39.848Z,22.41
2023-05-03T07:32:40.014Z,22.50
2023-05-03T07:33:38.979Z,22.55
2023-05-03T07:34:38.873Z,22.61
2023-05-03T07:35:38.883Z,22.66
2023-05-03T07:36:39.934Z,22.73
2023-05-03T07:37:39.931Z,22.81
2023-05-03T07:38:39.909Z,22.86
2023-05-03T07:39:39.969Z,22.87
2023-05-03T07:40:39.897Z,22.94
2023-05-03T07:41:39.925Z,23.00
2023-05-03T07:42:39.918Z,23.07
2023-05-03T07:43:38.952Z,23.12
2023-05-03T07:44:39.985Z,23.12
2023-05-03T07:45:39.003Z,23.03
2023-05-03T07:46:39.996Z,22.93
2023-05-03T07:47:40.460Z,22.88
2023-05-03T07:48:40.080Z,22.94
2023-05-03T07:49:40.077Z,23.03
2023-05-03T07:50:40.095Z,23.08
2023-05-03T07:51:39.063Z,23.12
2023-05-03T07:52:40.313Z,23.13
2023-05-03T07:53:39.074Z,23.20
2023-05-03T07:54:39.101Z,23.23
2023-05-03T07:55:40.123Z,23.24
2023-05-03T07:56:39.182Z,23.26
2023-05-03T07:57:39.198Z,23.25
2023-05-03T07:58:40.876Z,23.20
2023-05-03T07:59:39.218Z,23.09
2023-05-03T08:00:39.217Z,23.03
2023-05-03T08:01:40.266Z,23.09
2023-05-03T08:02:39.378Z,23.23
2023-05-03T08:03:39.511Z,23.20
2023-05-03T08:04:40.494Z,23.23
2023-05-03T08:05:39.453Z,23.31
2023-05-03T08:06:39.359Z,23.35
2023-05-03T08:07:39.370Z,23.20
2023-05-03T08:08:39.371Z,23.02
2023-05-03T08:09:39.391Z,22.98
2023-05-03T08:10:40.394Z,22.85
2023-05-03T08:11:40.977Z,22.76
2023-05-03T08:12:40.441Z,22.69
2023-05-03T08:13:40.389Z,22.63
2023-05-03T08:14:40.408Z,22.56
2023-05-03T08:15:40.429Z,22.52
2023-05-03T08:16:40.368Z,22.49
2023-05-03T08:17:40.380Z,22.45
2023-05-03T08:18:40.368Z,22.47
2023-05-03T08:19:41.328Z,22.47
2023-05-03T08:20:40.419Z,22.45
2023-05-03T08:21:39.346Z,22.42
2023-05-03T08:22:40.343Z,22.45
2023-05-03T08:23:40.336Z,22.48
2023-05-03T08:24:39.302Z,22.47
2023-05-03T08:25:39.308Z,22.41
2023-05-03T08:26:40.314Z,22.35
2023-05-03T08:27:40.294Z,22.30
2023-05-03T08:28:40.356Z,22.25
2023-05-03T08:29:39.285Z,22.22
2023-05-03T08:30:39.291Z,22.20
2023-05-03T08:31:39.360Z,22.16
2023-05-03T08:32:39.485Z,22.13
2023-05-03T08:33:40.423Z,22.10
2023-05-03T08:34:40.461Z,22.10
2023-05-03T08:35:40.529Z,22.04
2023-05-03T08:36:40.527Z,22.00
2023-05-03T08:37:40.542Z,22.02
2023-05-03T08:38:40.613Z,22.05
2023-05-03T08:39:40.675Z,22.02
2023-05-03T08:40:40.703Z,22.04
2023-05-03T08:41:39.818Z,22.01
2023-05-03T08:42:40.820Z,21.97
2023-05-03T08:43:41.332Z,21.87
2023-05-03T08:44:40.907Z,21.83
2023-05-03T08:45:39.949Z,21.82
2023-05-03T08:46:41.048Z,21.74
2023-05-03T08:47:40.091Z,21.55
2023-05-03T08:48:41.119Z,21.27
2023-05-03T08:49:40.168Z,20.95
2023-05-03T08:50:41.161Z,20.60
2023-05-03T08:51:41.212Z,20.33
2023-05-03T08:52:41.324Z,20.02
2023-05-03T08:53:41.320Z,19.86
2023-05-03T08:54:40.326Z,19.78
2023-05-03T08:55:41.338Z,19.67
2023-05-03T08:56:41.449Z,19.59
2023-05-03T08:57:41.480Z,19.48
2023-05-03T08:58:41.833Z,19.40
2023-05-03T08:59:40.355Z,19.35
2023-05-03T09:00:41.379Z,19.31
2023-05-03T09:01:41.530Z,19.33
2023-05-03T09:02:40.567Z,19.32
2023-05-03T09:03:41.521Z,19.23
2023-05-03T09:04:40.430Z,19.17
2023-05-03T09:05:41.549Z,19.14
2023-05-03T09:06:40.475Z,19.14
2023-05-03T09:07:40.495Z,19.19
2023-05-03T09:08:40.548Z,19.23
2023-05-03T09:09:41.549Z,19.31
2023-05-03T09:10:40.562Z,19.47
2023-05-03T09:11:40.588Z,19.62
2023-05-03T09:12:41.614Z,19.75
2023-05-03T09:13:41.657Z,19.85
2023-05-03T09:14:41.671Z,19.90
2023-05-03T09:15:41.701Z,19.96
2023-05-03T09:16:41.733Z,20.05
2023-05-03T09:17:41.777Z,20.11
2023-05-03T09:18:40.774Z,20.20
2023-05-03T09:19:40.770Z,20.26
2023-05-03T09:20:41.831Z,20.32
2023-05-03T09:21:40.767Z,20.36
2023-05-03T09:22:40.783Z,20.34
2023-05-03T09:23:40.806Z,20.20
2023-05-03T09:24:41.860Z,20.04
2023-05-03T09:25:41.844Z,19.79
2023-05-03T09:26:41.847Z,19.59
2023-05-03T09:27:40.873Z,19.36
2023-05-03T09:28:41.892Z,19.13
2023-05-03T09:29:40.926Z,19.03
2023-05-03T09:30:40.948Z,19.00
2023-05-03T09:31:41.012Z,18.94
2023-05-03T09:32:41.110Z,18.95
2023-05-03T09:33:41.094Z,18.90
2023-05-03T09:34:42.148Z,18.86
2023-05-03T09:35:42.204Z,18.91
2023-05-03T09:36:42.864Z,18.84
2023-05-03T09:37:42.282Z,18.76
2023-05-03T09:38:42.256Z,18.85
2023-05-03T09:39:42.257Z,18.87
2023-05-03T09:40:42.259Z,18.85
2023-05-03T09:41:41.234Z,18.89
2023-05-03T09:42:42.232Z,19.02
2023-05-03T09:43:42.295Z,19.11
2023-05-03T09:44:42.209Z,19.14
2023-05-03T09:45:41.244Z,19.24
2023-05-03T09:46:42.190Z,19.40
2023-05-03T09:47:41.202Z,19.59
2023-05-03T09:48:41.492Z,19.78
2023-05-03T09:49:42.175Z,19.98
2023-05-03T09:50:42.169Z,20.12
2023-05-03T09:51:42.159Z,20.22
2023-05-03T09:52:42.146Z,20.33
2023-05-03T09:53:42.365Z,20.46
2023-05-03T09:54:41.124Z,20.55
2023-05-03T09:55:42.172Z,20.64
2023-05-03T09:56:41.259Z,20.72
2023-05-03T09:57:42.112Z,20.80
2023-05-03T09:58:42.134Z,20.87
2023-05-03T09:59:41.120Z,20.96
2023-05-03T10:00:41.095Z,21.00
2023-05-03T10:01:41.158Z,21.06
2023-05-03T10:02:42.083Z,21.12
2023-05-03T10:03:42.144Z,21.18
2023-05-03T10:04:41.073Z,21.26
2023-05-03T10:05:41.054Z,21.36
2023-05-03T10:06:42.114Z,21.42
2023-05-03T10:07:42.039Z,21.47
2023-05-03T10:08:42.033Z,21.46
2023-05-03T10:09:42.023Z,21.49
2023-05-03T10:10:41.025Z,21.50
2023-05-03T10:11:42.006Z,21.51
2023-05-03T10:12:41.032Z,21.51
2023-05-03T10:13:41.006Z,21.54
2023-05-03T10:14:40.978Z,21.55
2023-05-03T10:15:41.048Z,21.58
2023-05-03T10:16:42.063Z,21.59
2023-05-03T10:18:41.102Z,21.62
2023-05-03T10:19:41.125Z,21.63
2023-05-03T10:20:42.089Z,21.66
2023-05-03T10:21:41.089Z,21.68
2023-05-03T10:22:42.077Z,21.70
2023-05-03T10:23:42.077Z,21.70
2023-05-03T10:24:42.052Z,21.73
2023-05-03T10:25:42.056Z,21.76
2023-05-03T10:26:41.034Z,21.80
2023-05-03T10:27:42.031Z,21.81
2023-05-03T10:28:42.068Z,21.85
2023-05-03T10:29:42.025Z,21.86
2023-05-03T10:30:41.021Z,21.85
2023-05-03T10:31:41.132Z,21.88
2023-05-03T10:32:42.022Z,21.92
2023-05-03T10:33:42.006Z,21.95
2023-05-03T10:34:42.779Z,21.96
2023-05-03T10:35:41.979Z,22.00
2023-05-03T10:36:49.440Z,22.05
2023-05-03T10:37:41.975Z,22.08
2023-05-03T10:38:41.944Z,22.11
2023-05-03T10:39:41.954Z,22.15
2023-05-03T10:40:41.955Z,22.14
2023-05-03T10:41:40.930Z,22.14
2023-05-03T10:42:41.930Z,22.13
2023-05-03T10:43:41.359Z,22.14
2023-05-03T10:44:41.947Z,22.12
2023-05-03T10:45:41.895Z,22.00
2023-05-03T10:46:41.905Z,22.01
2023-05-03T10:47:41.929Z,22.10
2023-05-03T10:48:41.913Z,22.19
2023-05-03T10:49:41.880Z,22.22
2023-05-03T10:50:41.924Z,22.28
2023-05-03T10:51:41.876Z,22.34
2023-05-03T10:52:41.847Z,22.38
2023-05-03T10:53:40.969Z,22.40
2023-05-03T10:54:40.839Z,22.45
2023-05-03T10:55:41.848Z,22.49
2023-05-03T10:56:40.816Z,22.52
2023-05-03T10:57:41.825Z,22.51
2023-05-03T10:58:41.825Z,22.57
2023-05-03T10:59:41.802Z,22.61
2023-05-03T11:00:41.835Z,22.65
2023-05-03T11:01:40.819Z,22.64
2023-05-03T11:02:40.799Z,22.63
2023-05-03T11:03:40.779Z,22.62
2023-05-03T11:04:41.861Z,22.63
2023-05-03T11:05:41.747Z,22.62
2023-05-03T11:06:41.849Z,22.65
2023-05-03T11:07:41.743Z,22.68
2023-05-03T11:08:41.734Z,22.70
2023-05-03T11:09:40.723Z,22.71
2023-05-03T11:10:41.742Z,22.73
2023-05-03T11:11:41.705Z,22.74
2023-05-03T11:12:40.698Z,22.75
2023-05-03T11:13:40.762Z,22.75
2023-05-03T11:14:41.711Z,22.74
2023-05-03T11:15:41.686Z,22.75
2023-05-03T11:16:41.718Z,22.77
2023-05-03T11:17:40.716Z,22.79
2023-05-03T11:18:41.657Z,22.78
2023-05-03T11:19:40.644Z,22.78
2023-05-03T11:20:41.660Z,22.79
2023-05-03T11:21:40.670Z,22.79
2023-05-03T11:22:40.728Z,22.81
2023-05-03T11:23:41.795Z,22.81
2023-05-03T11:24:41.832Z,22.81
2023-05-03T11:25:40.891Z,22.82
2023-05-03T11:26:41.963Z,22.83
2023-05-03T11:27:42.052Z,22.83
2023-05-03T11:28:41.079Z,22.82
2023-05-03T11:29:42.143Z,22.80
2023-05-03T11:30:41.142Z,22.80
2023-05-03T11:31:41.246Z,22.80
2023-05-03T11:32:41.298Z,22.81
2023-05-03T11:33:41.230Z,22.81
2023-05-03T11:34:42.230Z,22.82
2023-05-03T11:35:41.243Z,22.82
2023-05-03T11:36:41.252Z,22.85
2023-05-03T11:37:41.250Z,22.87
2023-05-03T11:38:41.244Z,22.86
2023-05-03T11:39:41.236Z,22.85
2023-05-03T11:40:41.273Z,22.80
2023-05-03T11:41:41.299Z,22.76
2023-05-03T11:42:42.315Z,22.74
2023-05-03T11:43:42.352Z,22.71
2023-05-03T11:44:41.346Z,22.67
2023-05-03T11:45:42.440Z,22.66
2023-05-03T11:46:41.413Z,22.63
2023-05-03T11:47:41.383Z,22.59
2023-05-03T11:48:42.494Z,22.55
2023-05-03T11:49:41.348Z,22.53
2023-05-03T11:50:42.364Z,22.52
2023-05-03T11:51:41.401Z,22.50
2023-05-03T11:52:41.375Z,22.50
2023-05-03T11:53:41.380Z,22.50
2023-05-03T11:54:42.405Z,22.49
2023-05-03T11:55:42.462Z,22.49
2023-05-03T11:56:42.440Z,22.47
2023-05-03T11:57:42.490Z,22.44
2023-05-03T11:58:41.531Z,22.43
2023-05-03T11:59:42.564Z,22.47
2023-05-03T12:00:42.608Z,22.49
2023-05-03T12:01:41.642Z,22.48
2023-05-03T12:02:42.840Z,22.48
2023-05-03T12:03:42.881Z,22.48
2023-05-03T12:04:42.423Z,22.53
2023-05-03T12:05:43.181Z,22.53
2023-05-03T12:06:44.771Z,22.44
2023-05-03T12:07:44.602Z,22.39
2023-05-03T12:08:44.284Z,22.41
2023-05-03T12:09:44.784Z,22.46
2023-05-03T12:10:43.197Z,22.48
2023-05-03T12:11:43.534Z,22.51
2023-05-03T12:12:47.059Z,22.55
2023-05-03T12:13:44.160Z,22.57
2023-05-03T12:14:42.115Z,22.59
2023-05-03T12:15:43.790Z,22.63
2023-05-03T12:16:43.014Z,22.65
2023-05-03T12:17:44.867Z,22.64
2023-05-03T12:18:42.094Z,22.61
2023-05-03T12:19:43.884Z,22.59
2023-05-03T12:21:29.491Z,22.58
2023-05-03T12:21:43.260Z,22.60
2023-05-03T12:22:45.093Z,22.63
2023-05-03T12:23:41.996Z,22.63
2023-05-03T12:24:45.034Z,22.61
2023-05-03T12:25:44.327Z,22.60
2023-05-03T12:26:42.886Z,22.62
2023-05-03T12:27:41.909Z,22.64
2023-05-03T12:28:42.898Z,22.63
2023-05-03T12:29:42.887Z,22.64
2023-05-03T12:30:44.673Z,22.61
2023-05-03T12:31:44.214Z,22.62
2023-05-03T12:32:44.213Z,22.59
2023-05-03T12:33:43.772Z,22.60
2023-05-03T12:34:42.080Z,22.61
2023-05-03T12:35:42.199Z,22.62
2023-05-03T12:36:43.824Z,22.63
2023-05-03T12:37:43.866Z,22.60
2023-05-03T12:38:43.725Z,22.59
2023-05-03T12:39:45.698Z,22.59
2023-05-03T12:40:42.178Z,22.56
2023-05-03T12:42:06.412Z,22.51
2023-05-03T12:42:43.645Z,22.54
2023-05-03T12:43:43.770Z,22.61
2023-05-03T12:44:43.392Z,22.60
2023-05-03T12:45:46.509Z,22.59
2023-05-03T12:46:45.235Z,22.60
2023-05-03T12:47:44.554Z,22.61
2023-05-03T12:48:46.210Z,22.62
2023-05-03T12:49:45.943Z,22.62
2023-05-03T12:50:45.244Z,22.62
2023-05-03T12:51:43.185Z,22.64
2023-05-03T12:53:46.682Z,22.64
2023-05-03T12:54:42.554Z,22.66